createdAt,value
2022-12-01T00:01:27.003Z,43.00
2022-12-01T00:03:54.695Z,46.75
2022-12-01T00:06:22.264Z,46.95
2022-12-01T00:09:17.968Z,44.28
2022-12-01T00:11:48.736Z,42.92
2022-12-01T00:14:16.373Z,44.72
2022-12-01T00:16:44.580Z,41.47
2022-12-01T00:19:11.924Z,44.95
2022-12-01T00:21:39.183Z,40.78
2022-12-01T00:24:09.890Z,41.17
2022-12-01T00:26:38.763Z,41.35
2022-12-01T00:29:05.977Z,42.10
2022-12-01T00:31:34.046Z,43.35
2022-12-01T00:34:03.796Z,42.03
2022-12-01T00:36:34.089Z,41.72
2022-12-01T00:39:01.362Z,43.05
2022-12-01T00:41:28.484Z,43.22
2022-12-01T00:43:55.739Z,42.65
2022-12-01T00:46:22.989Z,43.63
2022-12-01T00:48:50.276Z,44.47
2022-12-01T00:51:17.746Z,42.92
2022-12-01T00:53:45.924Z,43.50
2022-12-01T00:56:13.294Z,42.28
2022-12-01T00:58:40.587Z,43.60
2022-12-01T01:01:08.141Z,40.78
2022-12-01T01:03:35.533Z,40.03
2022-12-01T01:06:09.795Z,42.13
2022-12-01T01:08:37.980Z,42.23
2022-12-01T01:11:08.714Z,40.47
2022-12-01T01:13:37.071Z,37.90
2022-12-01T01:16:14.192Z,39.75
2022-12-01T01:18:41.484Z,38.53
2022-12-01T01:21:15.474Z,40.05
2022-12-01T01:23:43.266Z,39.10
2022-12-01T01:26:22.703Z,39.08
2022-12-01T01:28:50.974Z,38.97
2022-12-01T01:31:22.708Z,39.58
2022-12-01T01:33:50.625Z,38.53
2022-12-01T01:36:18.999Z,39.53
2022-12-01T01:38:47.632Z,39.75
2022-12-01T01:41:15.026Z,39.95
2022-12-01T01:43:49.526Z,40.75
2022-12-01T01:46:37.803Z,39.33
2022-12-01T01:49:11.647Z,39.13
2022-12-01T01:51:49.474Z,42.40
2022-12-01T01:54:31.494Z,39.97
2022-12-01T01:57:01.677Z,39.28
2022-12-01T01:59:37.800Z,42.38
2022-12-01T02:02:11.929Z,44.17
2022-12-01T02:04:46.123Z,40.60
2022-12-01T02:07:19.102Z,42.45
2022-12-01T02:09:46.876Z,40.17
2022-12-01T02:12:39.758Z,41.17
2022-12-01T02:15:35.441Z,37.13
2022-12-01T02:18:26.547Z,37.07
2022-12-01T02:21:36.915Z,39.40
2022-12-01T02:24:40.955Z,41.60
2022-12-01T02:27:55.115Z,42.38
2022-12-01T02:30:50.980Z,46.53
2022-12-01T02:33:47.081Z,31.98
2022-12-01T02:36:45.491Z,46.00
2022-12-01T02:39:35.713Z,41.20
2022-12-01T02:42:59.946Z,43.45
2022-12-01T02:45:46.172Z,41.65
2022-12-01T02:48:33.811Z,44.00
2022-12-01T02:51:29.059Z,43.13
2022-12-01T02:54:00.137Z,44.03
2022-12-01T02:56:27.849Z,44.33
2022-12-01T02:58:55.543Z,46.88
2022-12-01T03:02:01.312Z,46.60
2022-12-01T03:05:07.401Z,48.33
2022-12-01T03:08:02.136Z,49.53
2022-12-01T03:10:42.492Z,48.28
2022-12-01T03:14:02.914Z,47.78
2022-12-01T03:16:48.150Z,45.80
2022-12-01T03:19:53.694Z,45.90
2022-12-01T03:22:32.049Z,42.10
2022-12-01T03:25:03.675Z,44.65
2022-12-01T03:27:39.100Z,46.05
2022-12-01T03:30:10.914Z,46.10
2022-12-01T03:32:50.121Z,47.65
2022-12-01T03:35:41.862Z,42.33
2022-12-01T03:38:16.492Z,46.58
2022-12-01T03:40:49.820Z,43.70
2022-12-01T03:43:26.577Z,49.15
2022-12-01T03:46:31.700Z,49.78
2022-12-01T03:48:59.103Z,48.30
2022-12-01T03:52:04.563Z,51.15
2022-12-01T03:55:06.731Z,49.90
2022-12-01T03:57:56.947Z,46.53
2022-12-01T04:00:25.162Z,50.47
2022-12-01T04:03:03.244Z,50.95
2022-12-01T04:05:33.438Z,51.97
2022-12-01T04:08:01.745Z,49.05
2022-12-01T04:10:29.150Z,51.15
2022-12-01T04:12:59.545Z,52.42
2022-12-01T04:15:28.148Z,49.67
2022-12-01T04:17:55.457Z,55.17
2022-12-01T04:20:23.396Z,53.78
2022-12-01T04:22:50.543Z,51.00
2022-12-01T04:25:17.790Z,50.65
2022-12-01T04:27:44.972Z,53.60
2022-12-01T04:30:13.137Z,50.85
2022-12-01T04:32:43.632Z,49.72
2022-12-01T04:35:12.956Z,49.45
2022-12-01T04:37:41.027Z,45.55
2022-12-01T04:40:09.523Z,48.53
2022-12-01T04:42:36.690Z,45.38
2022-12-01T04:45:04.446Z,50.80
2022-12-01T04:47:31.663Z,46.97
2022-12-01T04:49:58.889Z,45.78
2022-12-01T04:52:27.498Z,47.17
2022-12-01T04:54:57.881Z,45.53
2022-12-01T04:57:25.160Z,44.40
2022-12-01T04:59:52.552Z,46.63
2022-12-01T05:02:19.902Z,44.95
2022-12-01T05:04:48.195Z,45.38
2022-12-01T05:07:15.437Z,43.38
2022-12-01T05:09:42.830Z,48.28
2022-12-01T05:12:10.286Z,43.28
2022-12-01T05:14:37.448Z,48.53
2022-12-01T05:17:04.691Z,45.60
2022-12-01T05:19:51.118Z,42.65
2022-12-01T05:22:31.500Z,41.53
2022-12-01T05:25:06.131Z,43.85
2022-12-01T05:27:33.315Z,45.47
2022-12-01T05:30:00.468Z,46.42
2022-12-01T05:32:27.630Z,47.40
2022-12-01T05:34:54.879Z,45.20
2022-12-01T05:37:22.021Z,43.22
2022-12-01T05:39:49.410Z,41.55
2022-12-01T05:42:16.748Z,44.42
2022-12-01T05:44:43.997Z,40.77
2022-12-01T05:47:11.248Z,44.58
2022-12-01T05:49:38.387Z,41.45
2022-12-01T05:52:05.569Z,42.45
2022-12-01T05:54:32.829Z,43.00
2022-12-01T05:57:00.110Z,41.88
2022-12-01T05:59:27.632Z,41.72
2022-12-01T06:01:55.001Z,40.80
2022-12-01T06:04:22.371Z,42.28
2022-12-01T06:06:49.856Z,42.85
2022-12-01T06:09:17.030Z,40.55
2022-12-01T06:11:44.214Z,40.92
2022-12-01T06:14:11.494Z,41.70
2022-12-01T06:16:38.889Z,41.45
2022-12-01T06:19:06.192Z,43.65
2022-12-01T06:21:33.483Z,42.03
2022-12-01T06:24:00.652Z,41.25
2022-12-01T06:26:30.905Z,40.50
2022-12-01T06:28:58.467Z,41.58
2022-12-01T06:31:25.738Z,40.05
2022-12-01T06:33:52.949Z,38.92
2022-12-01T06:36:20.173Z,43.35
2022-12-01T06:38:47.347Z,43.33
2022-12-01T06:41:14.483Z,40.60
2022-12-01T06:43:41.648Z,40.53
2022-12-01T06:46:08.978Z,39.30
2022-12-01T06:48:36.396Z,35.15
2022-12-01T06:51:03.893Z,35.25
2022-12-01T06:53:31.200Z,38.05
2022-12-01T06:56:05.911Z,39.13
2022-12-01T06:58:34.554Z,39.63
2022-12-01T07:01:12.379Z,38.17
2022-12-01T07:03:40.297Z,38.08
2022-12-01T07:06:07.617Z,38.83
2022-12-01T07:08:35.200Z,40.30
2022-12-01T07:11:12.502Z,44.42
2022-12-01T07:13:41.585Z,43.10
2022-12-01T07:16:09.622Z,43.08
2022-12-01T07:18:37.301Z,45.30
2022-12-01T07:21:12.772Z,43.75
2022-12-01T07:23:40.195Z,43.42
2022-12-01T07:26:15.548Z,45.63
2022-12-01T07:28:44.616Z,45.40
2022-12-01T07:31:18.926Z,48.83
2022-12-01T07:33:47.200Z,41.55
2022-12-01T07:36:15.672Z,45.80
2022-12-01T07:38:42.912Z,44.97
2022-12-01T07:41:14.335Z,45.97
2022-12-01T07:43:42.591Z,46.75
2022-12-01T07:46:22.649Z,45.22
2022-12-01T07:48:51.492Z,44.92
2022-12-01T07:51:19.895Z,42.88
2022-12-01T07:53:49.420Z,47.05
2022-12-01T07:56:19.141Z,46.35
2022-12-01T07:58:46.832Z,49.83
2022-12-01T08:01:24.844Z,47.13
2022-12-01T08:03:56.507Z,44.33
2022-12-01T08:06:25.497Z,41.90
2022-12-01T08:08:53.311Z,42.67
2022-12-01T08:11:29.275Z,40.45
2022-12-01T08:13:57.092Z,42.33
2022-12-01T08:16:25.950Z,42.80
2022-12-01T08:18:54.162Z,40.40
2022-12-01T08:21:24.100Z,34.15
2022-12-01T08:23:57.577Z,35.63
2022-12-01T08:26:26.382Z,38.35
2022-12-01T08:28:53.895Z,35.97
2022-12-01T08:31:30.350Z,37.00
2022-12-01T08:33:58.363Z,33.65
2022-12-01T08:36:26.330Z,35.67
2022-12-01T08:38:56.014Z,33.47
2022-12-01T08:41:24.733Z,34.80
2022-12-01T08:44:01.118Z,33.78
2022-12-01T08:46:33.867Z,34.47
2022-12-01T08:49:03.983Z,36.15
2022-12-01T08:51:31.764Z,39.45
2022-12-01T08:54:00.468Z,44.55
2022-12-01T08:56:40.486Z,43.80
2022-12-01T08:59:08.395Z,45.60
2022-12-01T09:01:51.798Z,42.83
2022-12-01T09:04:23.621Z,42.85
2022-12-01T09:06:53.876Z,45.42
2022-12-01T09:09:28.450Z,42.38
2022-12-01T09:11:57.288Z,46.83
2022-12-01T09:14:24.582Z,46.83
2022-12-01T09:16:52.011Z,45.28
2022-12-01T09:19:24.708Z,40.83
2022-12-01T09:21:52.799Z,43.50
2022-12-01T09:24:20.047Z,43.63
2022-12-01T09:26:47.235Z,42.35
2022-12-01T09:29:16.780Z,41.65
2022-12-01T09:31:44.294Z,43.38
2022-12-01T09:34:17.351Z,43.33
2022-12-01T09:36:46.028Z,44.83
2022-12-01T09:39:18.723Z,43.13
2022-12-01T09:42:13.911Z,44.65
2022-12-01T09:44:50.851Z,42.17
2022-12-01T09:47:37.373Z,38.72
2022-12-01T09:50:21.870Z,43.30
2022-12-01T09:53:03.710Z,42.80
2022-12-01T09:55:34.149Z,41.30
2022-12-01T09:58:04.311Z,40.33
2022-12-01T10:00:37.011Z,40.50
2022-12-01T10:03:46.249Z,39.42
2022-12-01T10:06:28.107Z,36.65
2022-12-01T10:09:58.777Z,34.65
2022-12-01T10:12:34.629Z,37.33
2022-12-01T10:15:45.253Z,35.20
2022-12-01T10:18:56.244Z,37.03
2022-12-01T10:22:23.671Z,36.88
2022-12-01T10:24:56.258Z,37.55
2022-12-01T10:28:11.464Z,37.80
2022-12-01T10:30:53.689Z,38.33
2022-12-01T10:33:41.608Z,35.88
2022-12-01T10:36:10.606Z,35.78
2022-12-01T10:38:39.191Z,35.60
2022-12-01T10:41:14.631Z,33.97
2022-12-01T10:46:29.341Z,35.42
2022-12-01T10:49:09.881Z,34.45
2022-12-01T10:51:58.219Z,36.47
2022-12-01T10:54:41.237Z,35.70
2022-12-01T10:57:17.625Z,34.05
2022-12-01T11:00:00.430Z,34.92
2022-12-01T11:02:30.872Z,35.72
2022-12-01T11:05:18.853Z,35.33
2022-12-01T11:07:47.902Z,34.25
2022-12-01T11:10:32.276Z,31.90
2022-12-01T11:13:23.617Z,32.25
2022-12-01T11:15:57.581Z,33.03
2022-12-01T11:18:36.624Z,33.97
2022-12-01T11:21:28.070Z,33.60
2022-12-01T11:23:56.741Z,32.65
2022-12-01T11:26:29.813Z,31.80
2022-12-01T11:29:33.143Z,29.35
2022-12-01T11:32:02.479Z,29.25
2022-12-01T11:34:34.538Z,29.17
2022-12-01T11:37:09.729Z,28.13
2022-12-01T11:39:40.563Z,25.50
2022-12-01T11:42:13.717Z,27.50
2022-12-01T11:44:54.044Z,27.77
2022-12-01T11:47:25.739Z,29.45
2022-12-01T11:50:07.333Z,30.80
2022-12-01T11:52:46.149Z,30.35
2022-12-01T11:55:13.170Z,30.67
2022-12-01T11:57:44.919Z,28.08
2022-12-01T12:00:25.296Z,27.85
2022-12-01T12:03:26.822Z,26.63
2022-12-01T12:06:39.933Z,24.00
2022-12-01T12:09:59.604Z,26.00
2022-12-01T12:12:45.582Z,28.88
2022-12-01T12:16:14.389Z,30.42
2022-12-01T12:19:06.470Z,28.27
2022-12-01T12:22:21.216Z,30.58
2022-12-01T12:25:34.393Z,28.25
2022-12-01T12:28:23.333Z,31.35
2022-12-01T12:31:44.160Z,32.15
2022-12-01T12:34:41.203Z,31.67
2022-12-01T12:37:45.507Z,29.38
2022-12-01T12:40:54.472Z,28.00
2022-12-01T12:43:47.072Z,30.10
2022-12-01T12:46:46.510Z,30.33
2022-12-01T12:49:57.765Z,33.30
2022-12-01T12:52:46.510Z,34.17
2022-12-01T12:55:32.333Z,35.78
2022-12-01T12:58:14.061Z,33.63
2022-12-01T13:00:52.361Z,32.30
2022-12-01T13:04:07.819Z,33.33
2022-12-01T13:07:14.079Z,34.05
2022-12-01T13:09:51.429Z,32.40
2022-12-01T13:12:39.029Z,34.90
2022-12-01T13:15:20.384Z,30.42
2022-12-01T13:18:04.729Z,30.27
2022-12-01T13:20:34.862Z,31.48
2022-12-01T13:23:03.621Z,28.20
2022-12-01T13:25:40.432Z,27.38
2022-12-01T13:28:29.211Z,29.95
2022-12-01T13:31:11.804Z,29.63
2022-12-01T13:34:02.940Z,30.75
2022-12-01T13:36:48.164Z,31.80
2022-12-01T13:39:36.069Z,31.80
2022-12-01T13:42:25.859Z,33.13
2022-12-01T13:45:02.460Z,33.30
2022-12-01T13:47:51.960Z,35.95
2022-12-01T13:50:42.874Z,32.38
2022-12-01T13:53:32.363Z,32.13
2022-12-01T13:56:17.776Z,30.80
2022-12-01T13:58:52.990Z,28.75
2022-12-01T14:01:20.377Z,30.15
2022-12-01T14:04:16.836Z,28.40
2022-12-01T14:06:50.681Z,27.92
2022-12-01T14:09:49.556Z,27.42
2022-12-01T14:12:28.539Z,30.55
2022-12-01T14:15:20.498Z,32.67
2022-12-01T14:17:48.105Z,33.55
2022-12-01T14:20:21.462Z,33.88
2022-12-01T14:23:33.165Z,33.17
2022-12-01T14:26:13.945Z,35.53
2022-12-01T14:29:02.588Z,39.55
2022-12-01T14:31:32.705Z,39.00
2022-12-01T14:34:19.921Z,37.90
2022-12-01T14:37:06.033Z,38.50
2022-12-01T14:42:57.853Z,37.97
2022-12-01T14:45:49.819Z,35.08
2022-12-01T14:48:28.216Z,32.42
2022-12-01T14:51:35.129Z,35.85
2022-12-01T14:54:17.898Z,32.78
2022-12-01T14:56:52.029Z,34.88
2022-12-01T14:59:25.947Z,31.40
2022-12-01T15:02:08.833Z,35.33
2022-12-01T15:05:14.623Z,33.42
2022-12-01T15:07:51.930Z,33.67
2022-12-01T15:10:29.142Z,34.05
2022-12-01T15:12:56.335Z,35.67
2022-12-01T15:15:26.994Z,34.13
2022-12-01T15:17:55.871Z,35.63
2022-12-01T15:20:37.912Z,34.25
2022-12-01T15:23:17.109Z,34.00
2022-12-01T15:25:46.499Z,35.17
2022-12-01T15:28:19.648Z,33.70
2022-12-01T15:30:53.931Z,33.95
2022-12-01T15:33:37.194Z,33.25
2022-12-01T15:36:07.231Z,35.22
2022-12-01T15:38:37.296Z,34.80
2022-12-01T15:44:00.621Z,36.92
2022-12-01T15:46:34.197Z,39.80
2022-12-01T15:49:16.885Z,40.00
2022-12-01T15:51:45.353Z,39.45
2022-12-01T15:54:26.304Z,39.80
2022-12-01T15:56:58.532Z,42.55
2022-12-01T15:59:41.837Z,43.30
2022-12-01T16:02:32.622Z,45.80
2022-12-01T16:05:18.260Z,43.33
2022-12-01T16:08:12.745Z,40.60
2022-12-01T16:10:36.889Z,42.33
2022-12-01T16:13:48.802Z,43.08
2022-12-01T16:16:49.680Z,40.03
2022-12-01T16:19:16.924Z,40.22
2022-12-01T16:21:54.764Z,39.67
2022-12-01T16:24:30.705Z,42.03
2022-12-01T16:29:46.033Z,43.00
2022-12-01T16:32:21.806Z,47.60
2022-12-01T16:34:52.508Z,54.53
2022-12-01T16:37:22.075Z,56.33
2022-12-01T16:39:49.961Z,58.40
2022-12-01T16:42:21.067Z,58.15
2022-12-01T16:44:50.647Z,59.00
2022-12-01T16:47:25.690Z,63.83
2022-12-01T16:49:53.431Z,62.55
2022-12-01T16:55:57.683Z,53.17
2022-12-01T16:58:25.177Z,50.85
2022-12-01T17:00:52.999Z,45.50
2022-12-01T17:03:25.335Z,43.38
2022-12-01T17:05:53.296Z,45.50
2022-12-01T17:08:21.132Z,45.60
2022-12-01T17:10:51.396Z,53.05
2022-12-01T17:13:23.253Z,50.63
2022-12-01T17:15:54.333Z,52.95
2022-12-01T17:18:24.943Z,57.35
2022-12-01T17:21:08.193Z,57.10
2022-12-01T17:23:37.921Z,64.28
2022-12-01T17:26:16.353Z,50.83
2022-12-01T17:28:43.778Z,55.70
2022-12-01T17:31:12.047Z,50.47
2022-12-01T17:33:40.258Z,44.55
2022-12-01T17:36:12.284Z,45.60
2022-12-01T17:38:45.780Z,46.83
2022-12-01T17:41:21.698Z,41.83
2022-12-01T17:43:49.125Z,42.88
2022-12-01T17:46:17.105Z,40.33
2022-12-01T17:48:47.003Z,44.75
2022-12-01T17:51:15.470Z,54.38
2022-12-01T17:53:42.888Z,48.92
2022-12-01T17:56:15.335Z,49.53
2022-12-01T17:58:45.357Z,52.50
2022-12-01T18:01:19.154Z,56.53
2022-12-01T18:03:50.875Z,59.25
2022-12-01T18:06:19.767Z,59.03
2022-12-01T18:08:47.431Z,59.33
2022-12-01T18:11:16.605Z,48.83
2022-12-01T18:13:48.430Z,48.53
2022-12-01T18:16:21.424Z,46.60
2022-12-01T18:18:49.585Z,54.40
2022-12-01T18:21:20.752Z,63.15
2022-12-01T18:23:59.434Z,68.55
2022-12-01T18:26:28.464Z,70.93
2022-12-01T18:29:03.669Z,53.35
2022-12-01T18:31:32.954Z,54.13
2022-12-01T18:34:03.391Z,54.95
2022-12-01T18:36:34.429Z,52.72
2022-12-01T18:39:04.195Z,54.70
2022-12-01T18:41:32.044Z,46.35
2022-12-01T18:43:59.293Z,50.63
2022-12-01T18:46:26.598Z,49.90
2022-12-01T18:49:03.085Z,48.58
2022-12-01T18:51:36.666Z,44.95
2022-12-01T18:54:07.277Z,47.55
2022-12-01T18:56:35.291Z,45.70
2022-12-01T18:59:09.671Z,46.90
2022-12-01T19:01:43.530Z,45.85
2022-12-01T19:04:11.484Z,45.08
2022-12-01T19:06:41.397Z,47.38
2022-12-01T19:09:13.573Z,45.65
2022-12-01T19:11:43.149Z,47.50
2022-12-01T19:14:18.655Z,48.08
2022-12-01T19:16:47.271Z,43.45
2022-12-01T19:19:15.411Z,44.55
2022-12-01T19:21:42.848Z,43.22
2022-12-01T19:24:10.121Z,43.67
2022-12-01T19:26:37.630Z,45.33
2022-12-01T19:29:05.677Z,42.58
2022-12-01T19:31:33.002Z,43.55
2022-12-01T19:34:03.652Z,40.33
2022-12-01T19:36:31.382Z,43.58
2022-12-01T19:39:00.555Z,45.78
2022-12-01T19:41:29.876Z,47.03
2022-12-01T19:43:58.454Z,45.97
2022-12-01T19:46:27.525Z,45.53
2022-12-01T19:49:00.952Z,45.13
2022-12-01T19:51:36.525Z,46.53
2022-12-01T19:54:07.735Z,45.20
2022-12-01T19:56:34.992Z,46.65
2022-12-01T19:59:02.667Z,45.67
2022-12-01T20:01:29.985Z,45.60
2022-12-01T20:03:57.311Z,46.35
2022-12-01T20:06:31.937Z,46.03
2022-12-01T20:09:03.713Z,47.03
2022-12-01T20:11:32.895Z,44.80
2022-12-01T20:14:00.160Z,43.03
2022-12-01T20:16:30.388Z,45.97
2022-12-01T20:19:02.335Z,46.30
2022-12-01T20:21:39.137Z,45.97
2022-12-01T20:24:10.849Z,47.25
2022-12-01T20:26:46.843Z,46.50
2022-12-01T20:29:23.410Z,47.55
2022-12-01T20:31:53.312Z,53.20
2022-12-01T20:34:27.673Z,55.65
2022-12-01T20:36:56.435Z,55.35
2022-12-01T20:39:24.790Z,55.13
2022-12-01T20:41:52.137Z,52.97
2022-12-01T20:44:19.852Z,53.25
2022-12-01T20:46:47.729Z,51.97
2022-12-01T20:49:18.073Z,49.90
2022-12-01T20:51:47.202Z,51.08
2022-12-01T20:54:27.896Z,51.13
2022-12-01T20:56:55.338Z,52.30
2022-12-01T20:59:22.570Z,49.28
2022-12-01T21:01:49.806Z,49.78
2022-12-01T21:04:17.637Z,47.22
2022-12-01T21:06:45.285Z,50.00
2022-12-01T21:09:14.589Z,49.78
2022-12-01T21:12:09.393Z,49.00
2022-12-01T21:14:45.597Z,49.72
2022-12-01T21:17:46.588Z,50.90
2022-12-01T21:20:53.484Z,50.78
2022-12-01T21:23:21.361Z,48.92
2022-12-01T21:25:49.373Z,49.75
2022-12-01T21:28:19.504Z,50.75
2022-12-01T21:31:11.136Z,49.42
2022-12-01T21:33:41.483Z,49.55
2022-12-01T21:36:20.776Z,50.38
2022-12-01T21:38:55.057Z,61.72
2022-12-01T21:41:28.639Z,53.28
2022-12-01T21:44:22.136Z,52.35
2022-12-01T21:46:56.777Z,55.78
2022-12-01T21:49:39.209Z,52.08
2022-12-01T21:52:40.151Z,50.90
2022-12-01T21:55:16.329Z,44.30
2022-12-01T21:57:50.366Z,46.78
2022-12-01T22:00:36.504Z,48.28
2022-12-01T22:06:31.465Z,43.78
2022-12-01T22:09:12.539Z,46.03
2022-12-01T22:11:45.202Z,45.78
2022-12-01T22:14:27.949Z,47.97
2022-12-01T22:17:06.491Z,48.75
2022-12-01T22:19:44.989Z,46.60
2022-12-01T22:22:11.964Z,47.67
2022-12-01T22:24:47.750Z,46.17
2022-12-01T22:27:38.724Z,46.65
2022-12-01T22:30:05.810Z,46.55
2022-12-01T22:33:03.600Z,47.20
2022-12-01T22:35:42.649Z,46.42
2022-12-01T22:38:36.949Z,47.50
2022-12-01T22:41:15.055Z,48.70
2022-12-01T22:44:02.175Z,48.47
2022-12-01T22:46:39.825Z,49.13
2022-12-01T22:49:22.105Z,51.58
2022-12-01T22:52:01.277Z,51.65
2022-12-01T22:54:43.205Z,51.20
2022-12-01T22:57:31.460Z,53.15
2022-12-01T23:00:23.064Z,51.97
2022-12-01T23:02:54.907Z,53.03
2022-12-01T23:05:27.755Z,56.00
2022-12-01T23:07:56.074Z,54.83
2022-12-01T23:10:34.696Z,54.25
2022-12-01T23:13:24.219Z,55.38
2022-12-01T23:15:55.948Z,53.97
2022-12-01T23:18:34.076Z,56.08
2022-12-01T23:21:02.381Z,53.80
2022-12-01T23:23:36.362Z,55.63
2022-12-01T23:26:08.066Z,53.17
2022-12-01T23:28:38.886Z,54.83
2022-12-01T23:31:09.249Z,55.05
2022-12-01T23:33:36.751Z,51.67
2022-12-01T23:36:16.805Z,51.95
2022-12-01T23:38:50.523Z,52.40
2022-12-01T23:41:36.864Z,51.20
2022-12-01T23:44:39.939Z,49.83
2022-12-01T23:47:24.799Z,51.40
2022-12-01T23:50:09.621Z,48.33
2022-12-01T23:52:37.350Z,52.17
2022-12-01T23:55:31.449Z,51.97
2022-12-01T23:57:59.195Z,49.78
